aviador You're here:

LEVC Decoded Metar

VALENCIA in SPAIN
Report Time2015-07-01 15:00:00
UTC Time2015-07-01 15:10:02
Flight Rules vfr VFR
Wind080° at 08 kt
W.Decomp.*RWY 12: 6.2 kt HW 5 kt LCW
W.Rank080° ranks 4
Current wind is above 080° avg. (7.2)
Visibility9999 m
Phenomena:N/A
Clouds:Few 015 Hf
Scattered 050 Hf
Expected CloudBase > 4,400 ft AGL from Temp-Dew spread
CeilingNone
Temp29°C (ISA +14)
Dew Point18°C (51% RH)
Heat Index29.8°C
AAT28.8°C
QNH1016 hPa
Density Alt2,031 ft
Elevation203 ft
Report Wrong Elevation
Raw Report
METAR LEVC 011500Z 08008KT 060V120 9999 FEW015 SCT050 29/18 Q1016
NOSIG=

Extra information for LEVC:More info

Metar Taf Metar & Taf Last 4 Metars F.Rules Stats Wind Profile Meteogram Temp Stats Airport Information Weather charts Add Link Nearby VenuesMetar ALERT Operation Metar Decoded Social comments

Webcam Valencia